sensor_id;sensor_type;location;lat;lon;timestamp;P1;durP1;ratioP1;P2;durP2;ratioP2
17886;SDS011;9069;52.044;7.472;2023-04-04T00:01:53;3.90;;;1.45;;
17886;SDS011;9069;52.044;7.472;2023-04-04T00:04:20;3.75;;;1.63;;
17886;SDS011;9069;52.044;7.472;2023-04-04T00:06:46;6.90;;;1.90;;
17886;SDS011;9069;52.044;7.472;2023-04-04T00:09:13;6.50;;;1.85;;
17886;SDS011;9069;52.044;7.472;2023-04-04T00:11:40;4.15;;;2.17;;
17886;SDS011;9069;52.044;7.472;2023-04-04T00:14:07;2.63;;;1.35;;
17886;SDS011;9069;52.044;7.472;2023-04-04T00:16:34;5.28;;;1.67;;
17886;SDS011;9069;52.044;7.472;2023-04-04T00:19:01;3.83;;;1.55;;
17886;SDS011;9069;52.044;7.472;2023-04-04T00:21:28;4.57;;;1.48;;
17886;SDS011;9069;52.044;7.472;2023-04-04T00:23:56;7.63;;;1.55;;
17886;SDS011;9069;52.044;7.472;2023-04-04T00:26:23;3.58;;;1.50;;
17886;SDS011;9069;52.044;7.472;2023-04-04T00:28:51;2.47;;;1.45;;
17886;SDS011;9069;52.044;7.472;2023-04-04T00:31:18;3.45;;;1.48;;
17886;SDS011;9069;52.044;7.472;2023-04-04T00:33:45;5.80;;;1.50;;
17886;SDS011;9069;52.044;7.472;2023-04-04T00:36:12;4.13;;;1.85;;
17886;SDS011;9069;52.044;7.472;2023-04-04T00:38:39;4.25;;;1.50;;
17886;SDS011;9069;52.044;7.472;2023-04-04T00:41:05;3.75;;;1.52;;
17886;SDS011;9069;52.044;7.472;2023-04-04T00:43:32;6.15;;;1.90;;
17886;SDS011;9069;52.044;7.472;2023-04-04T00:46:00;5.95;;;1.58;;
17886;SDS011;9069;52.044;7.472;2023-04-04T00:48:27;8.52;;;1.88;;
17886;SDS011;9069;52.044;7.472;2023-04-04T00:50:54;4.13;;;1.60;;
17886;SDS011;9069;52.044;7.472;2023-04-04T00:53:22;6.53;;;1.80;;
17886;SDS011;9069;52.044;7.472;2023-04-04T00:55:48;5.97;;;1.30;;
17886;SDS011;9069;52.044;7.472;2023-04-04T00:58:15;3.65;;;1.55;;
17886;SDS011;9069;52.044;7.472;2023-04-04T01:00:42;6.38;;;1.70;;
17886;SDS011;9069;52.044;7.472;2023-04-04T01:03:09;2.10;;;1.40;;
17886;SDS011;9069;52.044;7.472;2023-04-04T01:05:39;3.08;;;1.35;;
17886;SDS011;9069;52.044;7.472;2023-04-04T01:08:06;6.75;;;1.75;;
17886;SDS011;9069;52.044;7.472;2023-04-04T01:10:33;6.20;;;1.75;;
17886;SDS011;9069;52.044;7.472;2023-04-04T01:13:00;6.65;;;2.03;;
17886;SDS011;9069;52.044;7.472;2023-04-04T01:15:28;5.40;;;2.22;;
17886;SDS011;9069;52.044;7.472;2023-04-04T01:17:56;4.93;;;2.03;;
17886;SDS011;9069;52.044;7.472;2023-04-04T01:20:29;3.97;;;1.75;;
17886;SDS011;9069;52.044;7.472;2023-04-04T01:22:59;5.57;;;1.70;;
17886;SDS011;9069;52.044;7.472;2023-04-04T01:25:29;4.50;;;2.28;;
17886;SDS011;9069;52.044;7.472;2023-04-04T01:28:01;6.70;;;1.67;;
17886;SDS011;9069;52.044;7.472;2023-04-04T01:30:32;3.22;;;1.50;;
17886;SDS011;9069;52.044;7.472;2023-04-04T01:33:11;5.38;;;1.80;;
17886;SDS011;9069;52.044;7.472;2023-04-04T01:41:09;5.28;;;1.80;;
17886;SDS011;9069;52.044;7.472;2023-04-04T01:43:43;14.55;;;1.42;;
17886;SDS011;9069;52.044;7.472;2023-04-04T01:46:11;3.10;;;1.73;;
17886;SDS011;9069;52.044;7.472;2023-04-04T01:48:39;3.33;;;1.67;;
17886;SDS011;9069;52.044;7.472;2023-04-04T01:51:06;1.88;;;1.40;;
17886;SDS011;9069;52.044;7.472;2023-04-04T01:53:33;5.10;;;1.90;;
17886;SDS011;9069;52.044;7.472;2023-04-04T01:56:01;8.00;;;1.85;;
17886;SDS011;9069;52.044;7.472;2023-04-04T01:58:30;3.88;;;1.80;;
17886;SDS011;9069;52.044;7.472;2023-04-04T02:00:57;3.60;;;1.40;;
17886;SDS011;9069;52.044;7.472;2023-04-04T02:03:24;3.58;;;1.67;;
17886;SDS011;9069;52.044;7.472;2023-04-04T02:05:51;4.78;;;1.90;;
17886;SDS011;9069;52.044;7.472;2023-04-04T02:08:18;2.95;;;1.55;;
17886;SDS011;9069;52.044;7.472;2023-04-04T02:10:50;3.20;;;1.60;;
17886;SDS011;9069;52.044;7.472;2023-04-04T02:13:17;5.43;;;1.40;;
17886;SDS011;9069;52.044;7.472;2023-04-04T02:15:47;5.05;;;1.70;;
17886;SDS011;9069;52.044;7.472;2023-04-04T02:18:14;5.05;;;1.73;;
17886;SDS011;9069;52.044;7.472;2023-04-04T02:20:41;4.45;;;2.00;;
17886;SDS011;9069;52.044;7.472;2023-04-04T02:23:08;8.02;;;1.67;;
17886;SDS011;9069;52.044;7.472;2023-04-04T02:25:35;2.92;;;1.55;;
17886;SDS011;9069;52.044;7.472;2023-04-04T02:28:01;3.38;;;1.50;;
17886;SDS011;9069;52.044;7.472;2023-04-04T02:30:28;2.67;;;1.50;;
17886;SDS011;9069;52.044;7.472;2023-04-04T02:32:58;9.75;;;2.17;;
17886;SDS011;9069;52.044;7.472;2023-04-04T02:35:25;2.72;;;1.67;;
17886;SDS011;9069;52.044;7.472;2023-04-04T02:37:52;3.63;;;1.50;;
17886;SDS011;9069;52.044;7.472;2023-04-04T02:40:23;1.92;;;1.30;;
17886;SDS011;9069;52.044;7.472;2023-04-04T02:42:51;3.25;;;1.70;;
17886;SDS011;9069;52.044;7.472;2023-04-04T02:45:19;3.05;;;1.40;;
17886;SDS011;9069;52.044;7.472;2023-04-04T02:48:09;4.07;;;1.67;;
17886;SDS011;9069;52.044;7.472;2023-04-04T02:50:41;3.22;;;1.83;;
17886;SDS011;9069;52.044;7.472;2023-04-04T02:53:11;5.63;;;1.58;;
17886;SDS011;9069;52.044;7.472;2023-04-04T02:55:38;5.30;;;1.70;;
17886;SDS011;9069;52.044;7.472;2023-04-04T02:58:05;10.32;;;1.90;;
17886;SDS011;9069;52.044;7.472;2023-04-04T03:00:32;1.80;;;1.27;;
17886;SDS011;9069;52.044;7.472;2023-04-04T03:02:58;4.63;;;1.30;;
17886;SDS011;9069;52.044;7.472;2023-04-04T03:05:32;5.43;;;1.55;;
17886;SDS011;9069;52.044;7.472;2023-04-04T03:07:59;2.20;;;1.42;;
17886;SDS011;9069;52.044;7.472;2023-04-04T03:10:27;3.25;;;1.38;;
17886;SDS011;9069;52.044;7.472;2023-04-04T03:12:57;2.53;;;1.50;;
17886;SDS011;9069;52.044;7.472;2023-04-04T03:15:26;2.38;;;1.10;;
17886;SDS011;9069;52.044;7.472;2023-04-04T03:17:53;2.85;;;1.63;;
17886;SDS011;9069;52.044;7.472;2023-04-04T03:20:23;6.57;;;1.70;;
17886;SDS011;9069;52.044;7.472;2023-04-04T03:22:51;5.35;;;2.03;;
17886;SDS011;9069;52.044;7.472;2023-04-04T03:25:18;2.45;;;1.85;;
17886;SDS011;9069;52.044;7.472;2023-04-04T03:27:44;2.75;;;1.50;;
17886;SDS011;9069;52.044;7.472;2023-04-04T03:30:18;4.40;;;1.60;;
17886;SDS011;9069;52.044;7.472;2023-04-04T03:32:45;4.07;;;1.80;;
17886;SDS011;9069;52.044;7.472;2023-04-04T03:35:12;6.63;;;1.80;;
17886;SDS011;9069;52.044;7.472;2023-04-04T03:37:39;4.85;;;1.45;;
17886;SDS011;9069;52.044;7.472;2023-04-04T03:40:08;5.18;;;1.42;;
17886;SDS011;9069;52.044;7.472;2023-04-04T03:42:35;2.08;;;1.33;;
17886;SDS011;9069;52.044;7.472;2023-04-04T03:45:06;3.63;;;1.60;;
17886;SDS011;9069;52.044;7.472;2023-04-04T03:47:34;5.85;;;1.42;;
17886;SDS011;9069;52.044;7.472;2023-04-04T03:50:01;6.07;;;1.55;;
17886;SDS011;9069;52.044;7.472;2023-04-04T03:52:30;2.50;;;1.40;;
17886;SDS011;9069;52.044;7.472;2023-04-04T03:54:57;7.57;;;1.63;;
17886;SDS011;9069;52.044;7.472;2023-04-04T03:57:25;5.68;;;1.38;;
17886;SDS011;9069;52.044;7.472;2023-04-04T03:59:52;4.28;;;1.63;;
17886;SDS011;9069;52.044;7.472;2023-04-04T04:02:21;4.72;;;1.50;;
17886;SDS011;9069;52.044;7.472;2023-04-04T04:04:47;2.50;;;1.10;;
17886;SDS011;9069;52.044;7.472;2023-04-04T04:07:14;3.15;;;1.00;;
17886;SDS011;9069;52.044;7.472;2023-04-04T04:09:41;1.48;;;1.00;;
17886;SDS011;9069;52.044;7.472;2023-04-04T04:12:07;3.25;;;1.38;;
17886;SDS011;9069;52.044;7.472;2023-04-04T04:14:34;3.80;;;1.20;;
17886;SDS011;9069;52.044;7.472;2023-04-04T04:17:02;10.30;;;1.45;;
17886;SDS011;9069;52.044;7.472;2023-04-04T04:19:29;3.45;;;1.42;;
17886;SDS011;9069;52.044;7.472;2023-04-04T04:21:56;3.95;;;1.58;;
17886;SDS011;9069;52.044;7.472;2023-04-04T04:24:22;3.95;;;1.80;;
17886;SDS011;9069;52.044;7.472;2023-04-04T04:26:49;3.00;;;1.63;;
17886;SDS011;9069;52.044;7.472;2023-04-04T04:29:16;5.45;;;1.67;;
17886;SDS011;9069;52.044;7.472;2023-04-04T04:31:43;3.13;;;1.40;;
17886;SDS011;9069;52.044;7.472;2023-04-04T04:34:11;4.55;;;1.58;;
17886;SDS011;9069;52.044;7.472;2023-04-04T04:36:39;2.42;;;1.75;;
17886;SDS011;9069;52.044;7.472;2023-04-04T04:39:20;3.15;;;1.42;;
17886;SDS011;9069;52.044;7.472;2023-04-04T04:42:04;6.55;;;1.60;;
17886;SDS011;9069;52.044;7.472;2023-04-04T04:44:34;1.95;;;1.40;;
17886;SDS011;9069;52.044;7.472;2023-04-04T04:47:02;4.65;;;1.80;;
17886;SDS011;9069;52.044;7.472;2023-04-04T04:49:29;2.65;;;1.50;;
17886;SDS011;9069;52.044;7.472;2023-04-04T04:51:56;4.05;;;1.30;;
17886;SDS011;9069;52.044;7.472;2023-04-04T04:54:23;5.82;;;1.60;;
17886;SDS011;9069;52.044;7.472;2023-04-04T04:56:53;1.90;;;1.33;;
17886;SDS011;9069;52.044;7.472;2023-04-04T04:59:20;5.90;;;1.40;;
17886;SDS011;9069;52.044;7.472;2023-04-04T05:01:47;4.53;;;1.88;;
17886;SDS011;9069;52.044;7.472;2023-04-04T05:04:15;5.20;;;1.60;;
17886;SDS011;9069;52.044;7.472;2023-04-04T05:06:54;5.18;;;1.83;;
17886;SDS011;9069;52.044;7.472;2023-04-04T05:09:21;4.38;;;1.63;;
17886;SDS011;9069;52.044;7.472;2023-04-04T05:11:48;2.33;;;1.10;;
17886;SDS011;9069;52.044;7.472;2023-04-04T05:14:18;6.53;;;1.50;;
17886;SDS011;9069;52.044;7.472;2023-04-04T05:16:50;4.90;;;1.67;;
17886;SDS011;9069;52.044;7.472;2023-04-04T05:19:17;4.03;;;1.75;;
17886;SDS011;9069;52.044;7.472;2023-04-04T05:21:49;10.95;;;2.00;;
17886;SDS011;9069;52.044;7.472;2023-04-04T05:24:26;5.25;;;1.98;;
17886;SDS011;9069;52.044;7.472;2023-04-04T05:26:53;4.30;;;2.10;;
17886;SDS011;9069;52.044;7.472;2023-04-04T05:29:20;4.30;;;2.03;;
17886;SDS011;9069;52.044;7.472;2023-04-04T05:31:47;3.13;;;1.73;;
17886;SDS011;9069;52.044;7.472;2023-04-04T05:34:18;5.55;;;1.65;;
17886;SDS011;9069;52.044;7.472;2023-04-04T05:36:47;3.45;;;2.08;;
17886;SDS011;9069;52.044;7.472;2023-04-04T05:39:14;4.45;;;1.98;;
17886;SDS011;9069;52.044;7.472;2023-04-04T05:41:50;4.90;;;1.70;;
17886;SDS011;9069;52.044;7.472;2023-04-04T05:44:19;11.73;;;1.70;;
17886;SDS011;9069;52.044;7.472;2023-04-04T05:46:46;5.13;;;1.80;;
17886;SDS011;9069;52.044;7.472;2023-04-04T05:49:12;5.82;;;1.88;;
17886;SDS011;9069;52.044;7.472;2023-04-04T05:51:46;5.15;;;2.03;;
17886;SDS011;9069;52.044;7.472;2023-04-04T05:54:14;6.30;;;1.95;;
17886;SDS011;9069;52.044;7.472;2023-04-04T05:56:42;4.90;;;1.75;;
17886;SDS011;9069;52.044;7.472;2023-04-04T05:59:21;4.40;;;1.92;;
17886;SDS011;9069;52.044;7.472;2023-04-04T06:01:59;2.70;;;1.50;;
17886;SDS011;9069;52.044;7.472;2023-04-04T06:04:27;5.32;;;2.10;;
17886;SDS011;9069;52.044;7.472;2023-04-04T06:06:56;7.15;;;2.05;;
17886;SDS011;9069;52.044;7.472;2023-04-04T06:09:23;5.18;;;1.90;;
17886;SDS011;9069;52.044;7.472;2023-04-04T06:11:50;4.63;;;1.90;;
17886;SDS011;9069;52.044;7.472;2023-04-04T06:14:16;5.82;;;2.10;;
17886;SDS011;9069;52.044;7.472;2023-04-04T06:16:45;4.95;;;2.40;;
17886;SDS011;9069;52.044;7.472;2023-04-04T06:19:13;5.88;;;2.00;;
17886;SDS011;9069;52.044;7.472;2023-04-04T06:21:40;3.50;;;1.83;;
17886;SDS011;9069;52.044;7.472;2023-04-04T06:24:08;3.75;;;2.08;;
17886;SDS011;9069;52.044;7.472;2023-04-04T06:26:35;3.70;;;2.05;;
17886;SDS011;9069;52.044;7.472;2023-04-04T06:29:02;7.20;;;2.22;;
17886;SDS011;9069;52.044;7.472;2023-04-04T06:31:31;4.65;;;2.28;;
17886;SDS011;9069;52.044;7.472;2023-04-04T06:34:05;3.33;;;1.75;;
17886;SDS011;9069;52.044;7.472;2023-04-04T06:36:38;5.40;;;1.95;;
17886;SDS011;9069;52.044;7.472;2023-04-04T06:39:05;3.15;;;1.83;;
17886;SDS011;9069;52.044;7.472;2023-04-04T06:41:32;6.53;;;2.50;;
17886;SDS011;9069;52.044;7.472;2023-04-04T06:43:58;5.03;;;1.85;;
17886;SDS011;9069;52.044;7.472;2023-04-04T06:46:25;3.83;;;1.70;;
17886;SDS011;9069;52.044;7.472;2023-04-04T06:48:52;4.93;;;1.98;;
17886;SDS011;9069;52.044;7.472;2023-04-04T06:51:20;6.15;;;1.63;;
17886;SDS011;9069;52.044;7.472;2023-04-04T06:53:47;4.88;;;1.85;;
17886;SDS011;9069;52.044;7.472;2023-04-04T06:56:14;6.30;;;1.60;;
17886;SDS011;9069;52.044;7.472;2023-04-04T06:58:41;5.05;;;2.13;;
17886;SDS011;9069;52.044;7.472;2023-04-04T07:01:08;4.72;;;1.75;;
17886;SDS011;9069;52.044;7.472;2023-04-04T07:03:35;5.05;;;1.83;;
17886;SDS011;9069;52.044;7.472;2023-04-04T07:06:02;2.90;;;1.58;;
17886;SDS011;9069;52.044;7.472;2023-04-04T07:08:29;4.88;;;1.92;;
17886;SDS011;9069;52.044;7.472;2023-04-04T07:11:02;4.38;;;2.10;;
17886;SDS011;9069;52.044;7.472;2023-04-04T07:13:33;5.82;;;1.90;;
17886;SDS011;9069;52.044;7.472;2023-04-04T07:16:00;7.88;;;1.80;;
17886;SDS011;9069;52.044;7.472;2023-04-04T07:18:28;4.60;;;2.03;;
17886;SDS011;9069;52.044;7.472;2023-04-04T07:20:54;2.67;;;1.50;;
17886;SDS011;9069;52.044;7.472;2023-04-04T07:23:21;5.43;;;1.80;;
17886;SDS011;9069;52.044;7.472;2023-04-04T07:25:48;2.75;;;1.75;;
17886;SDS011;9069;52.044;7.472;2023-04-04T07:28:14;3.83;;;2.03;;
17886;SDS011;9069;52.044;7.472;2023-04-04T07:30:41;4.47;;;2.10;;
17886;SDS011;9069;52.044;7.472;2023-04-04T07:33:08;4.95;;;1.63;;
17886;SDS011;9069;52.044;7.472;2023-04-04T07:35:35;2.00;;;1.40;;
17886;SDS011;9069;52.044;7.472;2023-04-04T07:38:03;6.03;;;1.75;;
17886;SDS011;9069;52.044;7.472;2023-04-04T07:40:30;3.05;;;1.88;;
17886;SDS011;9069;52.044;7.472;2023-04-04T07:42:57;4.18;;;1.63;;
17886;SDS011;9069;52.044;7.472;2023-04-04T07:45:23;8.38;;;2.15;;
17886;SDS011;9069;52.044;7.472;2023-04-04T07:47:50;4.30;;;1.45;;
17886;SDS011;9069;52.044;7.472;2023-04-04T07:50:17;4.20;;;1.80;;
17886;SDS011;9069;52.044;7.472;2023-04-04T07:52:47;7.32;;;1.67;;
17886;SDS011;9069;52.044;7.472;2023-04-04T07:55:16;3.25;;;1.30;;
17886;SDS011;9069;52.044;7.472;2023-04-04T07:57:46;3.42;;;1.70;;
17886;SDS011;9069;52.044;7.472;2023-04-04T08:00:13;5.18;;;1.40;;
17886;SDS011;9069;52.044;7.472;2023-04-04T08:02:41;3.08;;;1.60;;
17886;SDS011;9069;52.044;7.472;2023-04-04T08:05:09;3.25;;;1.38;;
17886;SDS011;9069;52.044;7.472;2023-04-04T08:07:36;3.53;;;1.40;;
17886;SDS011;9069;52.044;7.472;2023-04-04T08:10:03;4.30;;;1.55;;
17886;SDS011;9069;52.044;7.472;2023-04-04T08:12:30;3.30;;;1.63;;
17886;SDS011;9069;52.044;7.472;2023-04-04T08:14:56;3.85;;;1.70;;
17886;SDS011;9069;52.044;7.472;2023-04-04T08:17:23;3.38;;;1.25;;
17886;SDS011;9069;52.044;7.472;2023-04-04T08:19:50;2.90;;;1.10;;
17886;SDS011;9069;52.044;7.472;2023-04-04T08:22:17;2.63;;;1.10;;
17886;SDS011;9069;52.044;7.472;2023-04-04T08:24:44;3.90;;;1.25;;
17886;SDS011;9069;52.044;7.472;2023-04-04T08:27:11;3.15;;;1.25;;
17886;SDS011;9069;52.044;7.472;2023-04-04T08:29:40;3.35;;;1.25;;
17886;SDS011;9069;52.044;7.472;2023-04-04T08:32:06;5.35;;;1.50;;
17886;SDS011;9069;52.044;7.472;2023-04-04T08:34:34;1.58;;;1.00;;
17886;SDS011;9069;52.044;7.472;2023-04-04T08:37:00;3.95;;;1.48;;
17886;SDS011;9069;52.044;7.472;2023-04-04T08:39:27;3.60;;;1.52;;
17886;SDS011;9069;52.044;7.472;2023-04-04T08:42:01;1.42;;;1.25;;
17886;SDS011;9069;52.044;7.472;2023-04-04T08:44:30;2.65;;;1.23;;
17886;SDS011;9069;52.044;7.472;2023-04-04T08:46:59;2.17;;;1.27;;
17886;SDS011;9069;52.044;7.472;2023-04-04T08:49:37;1.98;;;1.02;;
17886;SDS011;9069;52.044;7.472;2023-04-04T08:52:06;3.28;;;1.23;;
17886;SDS011;9069;52.044;7.472;2023-04-04T08:54:35;2.58;;;0.95;;
17886;SDS011;9069;52.044;7.472;2023-04-04T08:57:05;4.18;;;1.45;;
17886;SDS011;9069;52.044;7.472;2023-04-04T08:59:33;2.80;;;1.20;;
17886;SDS011;9069;52.044;7.472;2023-04-04T09:02:04;3.67;;;1.50;;
17886;SDS011;9069;52.044;7.472;2023-04-04T09:04:42;2.33;;;1.13;;
17886;SDS011;9069;52.044;7.472;2023-04-04T09:07:24;2.83;;;1.30;;
17886;SDS011;9069;52.044;7.472;2023-04-04T09:09:53;3.42;;;1.20;;
17886;SDS011;9069;52.044;7.472;2023-04-04T09:12:21;2.45;;;1.30;;
17886;SDS011;9069;52.044;7.472;2023-04-04T09:14:49;2.97;;;0.98;;
17886;SDS011;9069;52.044;7.472;2023-04-04T09:17:17;4.45;;;1.48;;
17886;SDS011;9069;52.044;7.472;2023-04-04T09:19:44;1.63;;;1.20;;
17886;SDS011;9069;52.044;7.472;2023-04-04T09:22:10;1.98;;;1.27;;
17886;SDS011;9069;52.044;7.472;2023-04-04T09:27:08;2.75;;;1.02;;
17886;SDS011;9069;52.044;7.472;2023-04-04T09:29:39;2.70;;;1.25;;
17886;SDS011;9069;52.044;7.472;2023-04-04T09:32:13;2.00;;;1.10;;
17886;SDS011;9069;52.044;7.472;2023-04-04T09:34:41;3.13;;;1.23;;
17886;SDS011;9069;52.044;7.472;2023-04-04T09:37:10;1.50;;;1.08;;
17886;SDS011;9069;52.044;7.472;2023-04-04T09:39:40;1.83;;;1.10;;
17886;SDS011;9069;52.044;7.472;2023-04-04T09:42:08;2.72;;;1.17;;
17886;SDS011;9069;52.044;7.472;2023-04-04T09:44:36;3.50;;;1.35;;
17886;SDS011;9069;52.044;7.472;2023-04-04T09:47:22;4.78;;;1.27;;
17886;SDS011;9069;52.044;7.472;2023-04-04T09:49:56;4.05;;;1.60;;
17886;SDS011;9069;52.044;7.472;2023-04-04T09:52:23;3.72;;;1.20;;
17886;SDS011;9069;52.044;7.472;2023-04-04T09:54:57;2.08;;;0.90;;
17886;SDS011;9069;52.044;7.472;2023-04-04T09:57:31;2.13;;;0.90;;
17886;SDS011;9069;52.044;7.472;2023-04-04T10:00:04;1.58;;;1.00;;
17886;SDS011;9069;52.044;7.472;2023-04-04T10:02:35;2.05;;;1.25;;
17886;SDS011;9069;52.044;7.472;2023-04-04T10:05:04;3.42;;;1.08;;
17886;SDS011;9069;52.044;7.472;2023-04-04T10:07:32;1.23;;;0.95;;
17886;SDS011;9069;52.044;7.472;2023-04-04T10:10:04;4.10;;;1.20;;
17886;SDS011;9069;52.044;7.472;2023-04-04T10:12:32;2.08;;;1.00;;
17886;SDS011;9069;52.044;7.472;2023-04-04T10:14:58;1.70;;;1.20;;
17886;SDS011;9069;52.044;7.472;2023-04-04T10:17:36;3.08;;;1.20;;
17886;SDS011;9069;52.044;7.472;2023-04-04T10:20:04;4.65;;;1.75;;
17886;SDS011;9069;52.044;7.472;2023-04-04T10:22:32;3.17;;;1.30;;
17886;SDS011;9069;52.044;7.472;2023-04-04T10:25:01;3.60;;;1.40;;
17886;SDS011;9069;52.044;7.472;2023-04-04T10:27:28;6.35;;;1.27;;
17886;SDS011;9069;52.044;7.472;2023-04-04T10:29:55;2.05;;;1.00;;
17886;SDS011;9069;52.044;7.472;2023-04-04T10:32:32;4.25;;;1.40;;
17886;SDS011;9069;52.044;7.472;2023-04-04T10:35:15;1.85;;;1.10;;
17886;SDS011;9069;52.044;7.472;2023-04-04T10:37:43;4.00;;;1.42;;
17886;SDS011;9069;52.044;7.472;2023-04-04T10:40:18;2.50;;;1.35;;
17886;SDS011;9069;52.044;7.472;2023-04-04T10:42:46;4.93;;;1.42;;
17886;SDS011;9069;52.044;7.472;2023-04-04T10:45:15;2.85;;;1.10;;
17886;SDS011;9069;52.044;7.472;2023-04-04T10:47:47;4.40;;;1.40;;
17886;SDS011;9069;52.044;7.472;2023-04-04T10:50:14;3.95;;;1.30;;
17886;SDS011;9069;52.044;7.472;2023-04-04T10:52:41;3.17;;;1.45;;
17886;SDS011;9069;52.044;7.472;2023-04-04T10:55:10;3.05;;;1.40;;
17886;SDS011;9069;52.044;7.472;2023-04-04T10:57:39;2.83;;;1.40;;
17886;SDS011;9069;52.044;7.472;2023-04-04T11:00:13;3.38;;;1.33;;
17886;SDS011;9069;52.044;7.472;2023-04-04T11:02:56;4.45;;;1.40;;
17886;SDS011;9069;52.044;7.472;2023-04-04T11:05:37;4.60;;;1.20;;
17886;SDS011;9069;52.044;7.472;2023-04-04T11:08:22;2.75;;;1.27;;
17886;SDS011;9069;52.044;7.472;2023-04-04T11:10:51;1.77;;;1.00;;
17886;SDS011;9069;52.044;7.472;2023-04-04T11:13:19;3.53;;;1.27;;
17886;SDS011;9069;52.044;7.472;2023-04-04T11:15:55;3.92;;;1.50;;
17886;SDS011;9069;52.044;7.472;2023-04-04T11:21:08;2.85;;;1.27;;
17886;SDS011;9069;52.044;7.472;2023-04-04T11:28:56;3.15;;;1.20;;
17886;SDS011;9069;52.044;7.472;2023-04-04T11:31:27;4.78;;;1.63;;
17886;SDS011;9069;52.044;7.472;2023-04-04T11:34:02;4.35;;;1.55;;
17886;SDS011;9069;52.044;7.472;2023-04-04T11:39:05;1.55;;;1.20;;
17886;SDS011;9069;52.044;7.472;2023-04-04T11:42:04;3.60;;;1.42;;
17886;SDS011;9069;52.044;7.472;2023-04-04T11:44:40;1.60;;;1.00;;
17886;SDS011;9069;52.044;7.472;2023-04-04T11:47:09;2.42;;;1.40;;
17886;SDS011;9069;52.044;7.472;2023-04-04T11:49:37;5.68;;;1.58;;
17886;SDS011;9069;52.044;7.472;2023-04-04T11:52:07;1.90;;;1.30;;
17886;SDS011;9069;52.044;7.472;2023-04-04T11:54:38;4.28;;;1.25;;
17886;SDS011;9069;52.044;7.472;2023-04-04T11:57:06;4.43;;;1.40;;
17886;SDS011;9069;52.044;7.472;2023-04-04T11:59:53;5.45;;;1.25;;
17886;SDS011;9069;52.044;7.472;2023-04-04T12:02:22;4.47;;;1.23;;
17886;SDS011;9069;52.044;7.472;2023-04-04T12:04:53;2.67;;;1.17;;
17886;SDS011;9069;52.044;7.472;2023-04-04T12:07:21;3.78;;;1.30;;
17886;SDS011;9069;52.044;7.472;2023-04-04T12:09:51;1.85;;;1.10;;
17886;SDS011;9069;52.044;7.472;2023-04-04T12:12:21;6.28;;;1.33;;
17886;SDS011;9069;52.044;7.472;2023-04-04T12:14:48;2.75;;;1.42;;
17886;SDS011;9069;52.044;7.472;2023-04-04T12:17:15;3.30;;;1.35;;
17886;SDS011;9069;52.044;7.472;2023-04-04T12:19:42;1.85;;;1.13;;
17886;SDS011;9069;52.044;7.472;2023-04-04T12:22:09;4.32;;;1.42;;
17886;SDS011;9069;52.044;7.472;2023-04-04T12:24:36;2.22;;;1.20;;
17886;SDS011;9069;52.044;7.472;2023-04-04T12:27:03;3.38;;;1.38;;
17886;SDS011;9069;52.044;7.472;2023-04-04T12:29:31;5.28;;;1.33;;
17886;SDS011;9069;52.044;7.472;2023-04-04T12:32:02;2.15;;;1.42;;
17886;SDS011;9069;52.044;7.472;2023-04-04T12:34:31;3.65;;;1.63;;
17886;SDS011;9069;52.044;7.472;2023-04-04T12:36:59;3.03;;;1.35;;
17886;SDS011;9069;52.044;7.472;2023-04-04T12:39:28;3.83;;;1.42;;
17886;SDS011;9069;52.044;7.472;2023-04-04T12:41:58;2.25;;;1.33;;
17886;SDS011;9069;52.044;7.472;2023-04-04T12:46:58;3.97;;;1.30;;
17886;SDS011;9069;52.044;7.472;2023-04-04T12:49:30;4.18;;;1.70;;
17886;SDS011;9069;52.044;7.472;2023-04-04T12:54:47;2.13;;;1.20;;
17886;SDS011;9069;52.044;7.472;2023-04-04T12:57:33;3.08;;;1.58;;
17886;SDS011;9069;52.044;7.472;2023-04-04T13:00:01;3.08;;;1.50;;
17886;SDS011;9069;52.044;7.472;2023-04-04T13:02:31;4.82;;;1.45;;
17886;SDS011;9069;52.044;7.472;2023-04-04T13:05:01;2.42;;;1.23;;
17886;SDS011;9069;52.044;7.472;2023-04-04T13:07:29;5.00;;;1.52;;
17886;SDS011;9069;52.044;7.472;2023-04-04T13:10:04;4.40;;;1.30;;
17886;SDS011;9069;52.044;7.472;2023-04-04T13:15:18;2.80;;;1.15;;
17886;SDS011;9069;52.044;7.472;2023-04-04T13:17:45;2.47;;;1.40;;
17886;SDS011;9069;52.044;7.472;2023-04-04T13:20:14;5.85;;;1.85;;
17886;SDS011;9069;52.044;7.472;2023-04-04T13:22:42;2.00;;;1.17;;
17886;SDS011;9069;52.044;7.472;2023-04-04T13:25:09;4.40;;;1.70;;
17886;SDS011;9069;52.044;7.472;2023-04-04T13:27:37;3.40;;;1.50;;
17886;SDS011;9069;52.044;7.472;2023-04-04T13:30:04;3.20;;;1.58;;
17886;SDS011;9069;52.044;7.472;2023-04-04T13:32:36;3.90;;;1.92;;
17886;SDS011;9069;52.044;7.472;2023-04-04T13:35:03;4.15;;;1.58;;
17886;SDS011;9069;52.044;7.472;2023-04-04T13:37:30;4.15;;;1.35;;
17886;SDS011;9069;52.044;7.472;2023-04-04T13:39:57;3.00;;;1.58;;
17886;SDS011;9069;52.044;7.472;2023-04-04T13:42:24;4.45;;;1.50;;
17886;SDS011;9069;52.044;7.472;2023-04-04T13:44:55;4.18;;;1.80;;
17886;SDS011;9069;52.044;7.472;2023-04-04T13:47:23;5.55;;;1.98;;
17886;SDS011;9069;52.044;7.472;2023-04-04T13:49:52;4.07;;;1.88;;
17886;SDS011;9069;52.044;7.472;2023-04-04T13:52:19;7.63;;;1.55;;
17886;SDS011;9069;52.044;7.472;2023-04-04T13:54:47;5.68;;;1.70;;
17886;SDS011;9069;52.044;7.472;2023-04-04T13:57:14;5.32;;;1.95;;
17886;SDS011;9069;52.044;7.472;2023-04-04T13:59:41;6.45;;;1.63;;
17886;SDS011;9069;52.044;7.472;2023-04-04T14:02:08;7.65;;;1.67;;
17886;SDS011;9069;52.044;7.472;2023-04-04T14:04:35;6.38;;;1.90;;
17886;SDS011;9069;52.044;7.472;2023-04-04T14:07:02;2.47;;;1.50;;
17886;SDS011;9069;52.044;7.472;2023-04-04T14:09:29;3.28;;;1.42;;
17886;SDS011;9069;52.044;7.472;2023-04-04T14:11:56;3.80;;;1.40;;
17886;SDS011;9069;52.044;7.472;2023-04-04T14:14:22;3.75;;;1.70;;
17886;SDS011;9069;52.044;7.472;2023-04-04T14:16:49;5.85;;;2.03;;
17886;SDS011;9069;52.044;7.472;2023-04-04T14:19:16;3.60;;;1.58;;
17886;SDS011;9069;52.044;7.472;2023-04-04T14:21:43;6.50;;;1.90;;
17886;SDS011;9069;52.044;7.472;2023-04-04T14:24:10;6.03;;;2.30;;
17886;SDS011;9069;52.044;7.472;2023-04-04T14:26:36;6.43;;;2.00;;
17886;SDS011;9069;52.044;7.472;2023-04-04T14:29:03;5.43;;;2.25;;
17886;SDS011;9069;52.044;7.472;2023-04-04T14:31:30;2.75;;;1.77;;
17886;SDS011;9069;52.044;7.472;2023-04-04T14:34:00;5.63;;;1.95;;
17886;SDS011;9069;52.044;7.472;2023-04-04T14:36:27;4.80;;;1.92;;
17886;SDS011;9069;52.044;7.472;2023-04-04T14:38:54;4.47;;;2.35;;
17886;SDS011;9069;52.044;7.472;2023-04-04T14:41:21;3.35;;;1.83;;
17886;SDS011;9069;52.044;7.472;2023-04-04T14:43:48;4.32;;;2.20;;
17886;SDS011;9069;52.044;7.472;2023-04-04T14:46:15;2.35;;;1.58;;
17886;SDS011;9069;52.044;7.472;2023-04-04T14:48:44;2.97;;;1.50;;
17886;SDS011;9069;52.044;7.472;2023-04-04T14:51:11;2.10;;;1.30;;
17886;SDS011;9069;52.044;7.472;2023-04-04T14:53:39;3.80;;;1.98;;
17886;SDS011;9069;52.044;7.472;2023-04-04T14:56:06;6.13;;;2.00;;
17886;SDS011;9069;52.044;7.472;2023-04-04T14:58:32;6.38;;;1.90;;
17886;SDS011;9069;52.044;7.472;2023-04-04T15:01:00;3.88;;;2.15;;
17886;SDS011;9069;52.044;7.472;2023-04-04T15:03:27;5.90;;;2.30;;
17886;SDS011;9069;52.044;7.472;2023-04-04T15:05:54;4.57;;;2.13;;
17886;SDS011;9069;52.044;7.472;2023-04-04T15:08:21;5.47;;;2.30;;
17886;SDS011;9069;52.044;7.472;2023-04-04T15:10:48;2.55;;;1.98;;
17886;SDS011;9069;52.044;7.472;2023-04-04T15:13:15;5.47;;;1.95;;
17886;SDS011;9069;52.044;7.472;2023-04-04T15:15:42;6.45;;;2.20;;
17886;SDS011;9069;52.044;7.472;2023-04-04T15:18:09;3.88;;;1.90;;
17886;SDS011;9069;52.044;7.472;2023-04-04T15:20:35;3.17;;;2.33;;
17886;SDS011;9069;52.044;7.472;2023-04-04T15:23:05;4.15;;;1.90;;
17886;SDS011;9069;52.044;7.472;2023-04-04T15:25:32;3.30;;;1.83;;
17886;SDS011;9069;52.044;7.472;2023-04-04T15:27:59;4.22;;;1.92;;
17886;SDS011;9069;52.044;7.472;2023-04-04T15:30:26;6.32;;;2.15;;
17886;SDS011;9069;52.044;7.472;2023-04-04T15:32:56;6.55;;;2.05;;
17886;SDS011;9069;52.044;7.472;2023-04-04T15:35:23;3.63;;;2.00;;
17886;SDS011;9069;52.044;7.472;2023-04-04T15:37:50;3.05;;;1.88;;